createdAt,value
2019-01-12T00:01:27.368Z,14.53
2019-01-12T00:03:55.598Z,15.17
2019-01-12T00:06:23.141Z,14.50
2019-01-12T00:08:50.656Z,14.70
2019-01-12T00:11:18.182Z,12.77
2019-01-12T00:13:45.615Z,13.87
2019-01-12T00:16:13.340Z,14.73
2019-01-12T00:18:40.840Z,14.37
2019-01-12T00:21:08.351Z,14.53
2019-01-12T00:23:35.895Z,13.70
2019-01-12T00:26:03.540Z,14.97
2019-01-12T00:28:31.075Z,14.30
2019-01-12T00:30:58.569Z,14.33
2019-01-12T00:33:26.068Z,13.63
2019-01-12T00:35:53.576Z,13.57
2019-01-12T00:38:21.095Z,15.47
2019-01-12T00:40:48.642Z,13.97
2019-01-12T00:43:16.277Z,15.43
2019-01-12T00:45:43.798Z,12.83
2019-01-12T00:48:11.453Z,13.60
2019-01-12T00:50:39.010Z,14.67
2019-01-12T00:53:06.694Z,12.73
2019-01-12T00:55:34.277Z,14.27
2019-01-12T00:58:01.722Z,13.37
2019-01-12T01:00:29.644Z,14.07
2019-01-12T01:02:57.379Z,14.10
2019-01-12T01:05:25.087Z,14.63
2019-01-12T01:07:52.620Z,14.73
2019-01-12T01:10:21.688Z,14.93
2019-01-12T01:12:49.913Z,13.50
2019-01-12T01:15:18.654Z,12.80
2019-01-12T01:17:46.125Z,14.17
2019-01-12T01:20:14.728Z,13.77
2019-01-12T01:22:42.383Z,13.93
2019-01-12T01:25:10.074Z,15.70
2019-01-12T01:27:37.656Z,15.97
2019-01-12T01:30:08.509Z,15.00
2019-01-12T01:32:36.004Z,15.93
2019-01-12T01:35:04.269Z,14.00
2019-01-12T01:37:31.834Z,15.73
2019-01-12T01:39:59.447Z,14.50
2019-01-12T01:42:26.861Z,14.60
2019-01-12T01:44:54.431Z,12.73
2019-01-12T01:47:22.011Z,13.03
2019-01-12T01:49:49.535Z,14.10
2019-01-12T01:52:17.108Z,14.63
2019-01-12T01:54:44.567Z,12.67
2019-01-12T01:57:12.078Z,12.53
2019-01-12T01:59:39.665Z,14.17
2019-01-12T02:02:07.160Z,14.40
2019-01-12T02:04:34.643Z,13.87
2019-01-12T02:07:02.164Z,13.70
2019-01-12T02:09:29.781Z,16.37
2019-01-12T02:11:57.231Z,13.87
2019-01-12T02:14:24.803Z,14.80
2019-01-12T02:16:52.389Z,14.60
2019-01-12T02:19:19.955Z,15.53
2019-01-12T02:21:47.455Z,18.60
2019-01-12T02:24:15.036Z,18.70
2019-01-12T02:26:42.637Z,17.27
2019-01-12T02:29:10.159Z,19.67
2019-01-12T02:31:37.605Z,20.03
2019-01-12T02:34:05.176Z,19.13
2019-01-12T02:36:32.627Z,19.50
2019-01-12T02:39:00.058Z,16.80
2019-01-12T02:41:27.710Z,15.90
2019-01-12T02:43:55.285Z,15.17
2019-01-12T02:46:22.789Z,14.37
2019-01-12T02:48:50.345Z,14.80
2019-01-12T02:51:18.097Z,12.97
2019-01-12T02:53:46.030Z,12.73
2019-01-12T02:56:13.644Z,13.70
2019-01-12T02:58:41.168Z,13.50
2019-01-12T03:01:08.706Z,12.47
2019-01-12T03:03:36.285Z,14.00
2019-01-12T03:06:04.000Z,12.67
2019-01-12T03:08:31.548Z,11.33
2019-01-12T03:10:58.992Z,12.10
2019-01-12T03:13:26.449Z,11.60
2019-01-12T03:15:54.014Z,10.77
2019-01-12T03:18:21.597Z,12.37
2019-01-12T03:20:49.021Z,11.77
2019-01-12T03:23:16.562Z,11.90
2019-01-12T03:25:44.284Z,12.00
2019-01-12T03:28:11.959Z,13.07
2019-01-12T03:30:39.645Z,11.87
2019-01-12T03:33:07.219Z,11.57
2019-01-12T03:35:34.693Z,11.07
2019-01-12T03:38:02.299Z,11.87
2019-01-12T03:40:29.845Z,11.50
2019-01-12T03:42:57.336Z,11.83
2019-01-12T03:45:24.860Z,11.37
2019-01-12T03:47:52.330Z,12.03
2019-01-12T03:50:20.076Z,10.30
2019-01-12T03:52:47.582Z,11.43
2019-01-12T03:55:15.784Z,10.33
2019-01-12T03:57:43.269Z,10.90
2019-01-12T04:00:22.306Z,10.83
2019-01-12T04:02:49.832Z,11.80
2019-01-12T04:05:17.440Z,11.30
2019-01-12T04:07:44.995Z,11.07
2019-01-12T04:10:12.806Z,10.70
2019-01-12T04:12:40.249Z,10.47
2019-01-12T04:15:08.950Z,10.70
2019-01-12T04:17:36.489Z,10.47
2019-01-12T04:20:06.010Z,10.23
2019-01-12T04:22:33.602Z,9.90
2019-01-12T04:25:01.089Z,9.63
2019-01-12T04:27:28.569Z,10.13
2019-01-12T04:29:56.014Z,8.93
2019-01-12T04:32:23.608Z,9.30
2019-01-12T04:34:51.197Z,9.40
2019-01-12T04:37:18.738Z,10.17
2019-01-12T04:39:46.396Z,9.20
2019-01-12T04:42:13.909Z,10.07
2019-01-12T04:44:41.484Z,9.50
2019-01-12T04:47:09.046Z,8.97
2019-01-12T04:49:36.565Z,8.87
2019-01-12T04:52:04.093Z,9.80
2019-01-12T04:54:31.649Z,10.03
2019-01-12T04:56:59.245Z,9.77
2019-01-12T04:59:26.863Z,9.23
2019-01-12T05:01:54.341Z,9.27
2019-01-12T05:04:21.812Z,8.27
2019-01-12T05:06:49.347Z,8.63
2019-01-12T05:09:16.993Z,8.87
2019-01-12T05:11:44.482Z,8.17
2019-01-12T05:14:12.087Z,9.87
2019-01-12T05:16:39.652Z,9.70
2019-01-12T05:19:07.152Z,10.17
2019-01-12T05:21:35.259Z,10.27
2019-01-12T05:24:03.027Z,10.37
2019-01-12T05:26:30.580Z,8.97
2019-01-12T05:28:58.157Z,10.13
2019-01-12T05:31:25.651Z,11.07
2019-01-12T05:33:53.150Z,10.77
2019-01-12T05:36:20.805Z,9.93
2019-01-12T05:38:48.309Z,10.83
2019-01-12T05:41:15.836Z,10.43
2019-01-12T05:43:43.421Z,10.13
2019-01-12T05:46:11.388Z,10.57
2019-01-12T05:48:39.390Z,11.37
2019-01-12T05:51:06.990Z,11.57
2019-01-12T05:53:34.637Z,10.17
2019-01-12T05:56:02.128Z,9.67
2019-01-12T05:58:29.798Z,11.43
2019-01-12T06:00:57.440Z,10.00
2019-01-12T06:03:24.856Z,11.13
2019-01-12T06:05:52.517Z,9.60
2019-01-12T06:08:20.087Z,10.17
2019-01-12T06:10:47.549Z,9.77
2019-01-12T06:13:15.145Z,10.07
2019-01-12T06:15:42.709Z,9.90
2019-01-12T06:18:10.192Z,9.87
2019-01-12T06:20:37.701Z,10.47
2019-01-12T06:23:05.213Z,8.83
2019-01-12T06:25:32.776Z,10.90
2019-01-12T06:28:00.217Z,11.23
2019-01-12T06:30:28.131Z,10.10
2019-01-12T06:32:56.739Z,10.10
2019-01-12T06:35:24.237Z,10.03
2019-01-12T06:37:51.757Z,9.50
2019-01-12T06:40:19.497Z,16.33
2019-01-12T06:42:47.501Z,17.43
2019-01-12T06:45:15.782Z,18.67
2019-01-12T06:47:43.484Z,18.87
2019-01-12T06:50:14.331Z,20.93
2019-01-12T06:52:41.869Z,20.80
2019-01-12T06:55:09.715Z,21.70
2019-01-12T06:57:37.324Z,21.90
2019-01-12T07:00:08.038Z,23.73
2019-01-12T07:02:35.776Z,24.80
2019-01-12T07:05:04.817Z,23.43
2019-01-12T07:07:32.438Z,24.03
2019-01-12T07:09:59.900Z,25.40
2019-01-12T07:12:27.508Z,22.50
2019-01-12T07:14:55.067Z,13.40
2019-01-12T07:17:22.541Z,17.23
2019-01-12T07:19:50.063Z,17.43
2019-01-12T07:22:17.564Z,11.30
2019-01-12T07:24:45.096Z,10.67
2019-01-12T07:27:12.704Z,8.57
2019-01-12T07:29:40.266Z,9.23
2019-01-12T07:32:07.769Z,8.80
2019-01-12T07:34:35.339Z,9.80
2019-01-12T07:37:02.903Z,8.33
2019-01-12T07:39:30.329Z,9.93
2019-01-12T07:41:58.008Z,8.93
2019-01-12T07:44:25.638Z,10.43
2019-01-12T07:46:53.234Z,10.13
2019-01-12T07:49:20.763Z,9.70
2019-01-12T07:51:49.163Z,9.07
2019-01-12T07:54:16.792Z,10.23
2019-01-12T07:56:44.283Z,9.47
2019-01-12T07:59:11.932Z,11.80
2019-01-12T08:01:39.775Z,10.17
2019-01-12T08:04:07.452Z,9.57
2019-01-12T08:06:34.943Z,9.97
2019-01-12T08:09:04.415Z,10.30
2019-01-12T08:11:32.050Z,9.53
2019-01-12T08:13:59.645Z,9.50
2019-01-12T08:16:27.374Z,10.83
2019-01-12T08:18:54.964Z,8.87
2019-01-12T08:21:22.721Z,8.43
2019-01-12T08:23:50.295Z,10.03
2019-01-12T08:26:17.736Z,9.77
2019-01-12T08:28:45.280Z,7.80
2019-01-12T08:31:12.777Z,8.17
2019-01-12T08:33:40.320Z,7.93
2019-01-12T08:36:07.974Z,7.90
2019-01-12T08:38:35.484Z,10.20
2019-01-12T08:41:03.061Z,8.13
2019-01-12T08:43:31.103Z,8.10
2019-01-12T08:45:59.258Z,8.20
2019-01-12T08:48:26.868Z,10.30
2019-01-12T08:50:54.632Z,9.27
2019-01-12T08:53:22.260Z,10.30
2019-01-12T08:55:49.829Z,9.47
2019-01-12T08:58:17.283Z,9.93
2019-01-12T09:00:44.792Z,11.10
2019-01-12T09:03:12.409Z,10.50
2019-01-12T09:05:39.827Z,11.43
2019-01-12T09:08:07.833Z,8.60
2019-01-12T09:10:35.303Z,8.67
2019-01-12T09:13:02.912Z,8.63
2019-01-12T09:15:30.672Z,9.10
2019-01-12T09:17:58.147Z,9.33
2019-01-12T09:20:25.864Z,7.43
2019-01-12T09:22:54.339Z,7.63
2019-01-12T09:25:23.082Z,6.17
2019-01-12T09:27:50.877Z,5.67
2019-01-12T09:30:20.283Z,5.83
2019-01-12T09:32:48.173Z,6.20
2019-01-12T09:35:15.921Z,6.27
2019-01-12T09:37:43.740Z,5.90
2019-01-12T09:40:14.012Z,5.57
2019-01-12T09:42:41.711Z,6.10
2019-01-12T09:45:10.733Z,7.53
2019-01-12T09:47:38.754Z,7.33
2019-01-12T09:50:08.493Z,6.00
2019-01-12T09:52:36.682Z,6.13
2019-01-12T09:55:04.636Z,7.40
2019-01-12T09:57:32.151Z,6.17
2019-01-12T09:59:59.720Z,6.70
2019-01-12T10:02:27.345Z,5.60
2019-01-12T10:04:55.044Z,6.77
2019-01-12T10:07:22.735Z,5.67
2019-01-12T10:09:50.294Z,5.57
2019-01-12T10:12:17.877Z,5.23
2019-01-12T10:14:45.455Z,5.50
2019-01-12T10:17:12.929Z,6.50
2019-01-12T10:19:40.609Z,5.80
2019-01-12T10:22:08.341Z,6.07
2019-01-12T10:24:35.767Z,5.63
2019-01-12T10:27:03.813Z,5.37
2019-01-12T10:29:31.425Z,6.77
2019-01-12T10:31:58.922Z,7.47
2019-01-12T10:34:27.328Z,6.70
2019-01-12T10:36:54.998Z,4.83
2019-01-12T10:39:22.699Z,6.87
2019-01-12T10:41:50.453Z,8.10
2019-01-12T10:44:18.185Z,5.57
2019-01-12T10:46:45.877Z,4.43
2019-01-12T10:49:13.305Z,6.60
2019-01-12T10:51:40.826Z,8.00
2019-01-12T10:54:08.813Z,6.90
2019-01-12T10:56:36.521Z,6.90
2019-01-12T10:59:04.748Z,5.53
2019-01-12T11:01:32.553Z,6.00
2019-01-12T11:04:00.130Z,7.27
2019-01-12T11:06:27.707Z,5.40
2019-01-12T11:08:55.366Z,7.37
2019-01-12T11:11:23.386Z,4.60
2019-01-12T11:13:51.013Z,7.40
2019-01-12T11:16:18.749Z,6.23
2019-01-12T11:18:46.370Z,5.67
2019-01-12T11:21:13.874Z,5.83
2019-01-12T11:23:41.748Z,6.43
2019-01-12T11:26:09.865Z,6.80
2019-01-12T11:28:37.541Z,5.97
2019-01-12T11:31:05.397Z,6.43
2019-01-12T11:33:33.719Z,7.90
2019-01-12T11:36:01.435Z,7.30
2019-01-12T11:38:29.016Z,5.70
2019-01-12T11:40:57.008Z,6.43
2019-01-12T11:43:24.698Z,5.53
2019-01-12T11:45:52.435Z,7.63
2019-01-12T11:48:19.933Z,7.50
2019-01-12T11:50:47.441Z,8.17
2019-01-12T11:53:15.172Z,6.53
2019-01-12T11:55:42.825Z,6.13
2019-01-12T11:58:10.520Z,6.00
2019-01-12T12:00:38.091Z,5.87
2019-01-12T12:03:06.110Z,5.73
2019-01-12T12:05:33.600Z,4.67
2019-01-12T12:08:01.190Z,4.90
2019-01-12T12:10:28.888Z,5.57
2019-01-12T12:12:56.500Z,5.23
2019-01-12T12:15:24.151Z,6.13
2019-01-12T12:17:51.652Z,5.80
2019-01-12T12:20:21.691Z,5.47
2019-01-12T12:22:49.352Z,6.13
2019-01-12T12:25:17.692Z,6.27
2019-01-12T12:27:45.367Z,5.40
2019-01-12T12:30:18.959Z,5.90
2019-01-12T12:32:46.680Z,5.73
2019-01-12T12:35:15.078Z,5.93
2019-01-12T12:37:42.705Z,4.63
2019-01-12T12:40:11.656Z,6.20
2019-01-12T12:42:39.274Z,5.70
2019-01-12T12:45:10.880Z,6.07
2019-01-12T12:47:38.353Z,5.50
2019-01-12T12:50:08.266Z,5.70
2019-01-12T12:52:35.903Z,5.83
2019-01-12T12:55:04.735Z,6.83
2019-01-12T12:57:33.035Z,7.50
2019-01-12T13:00:00.770Z,6.00
2019-01-12T13:02:28.233Z,6.07
2019-01-12T13:04:55.692Z,6.73
2019-01-12T13:07:23.204Z,6.67
2019-01-12T13:09:50.686Z,5.53
2019-01-12T13:12:18.461Z,5.60
2019-01-12T13:14:46.207Z,5.43
2019-01-12T13:17:13.982Z,5.93
2019-01-12T13:19:50.342Z,4.57
2019-01-12T13:22:17.893Z,4.77
2019-01-12T13:24:49.315Z,5.77
2019-01-12T13:27:16.837Z,5.50
2019-01-12T13:29:44.497Z,5.33
2019-01-12T13:32:12.054Z,5.17
2019-01-12T13:34:40.704Z,5.07
2019-01-12T13:37:08.560Z,5.73
2019-01-12T13:39:36.074Z,4.97
2019-01-12T13:42:03.881Z,5.60
2019-01-12T13:44:31.424Z,4.43
2019-01-12T13:46:59.066Z,5.67
2019-01-12T13:49:26.724Z,5.30
2019-01-12T13:51:55.479Z,5.70
2019-01-12T13:54:23.213Z,5.17
2019-01-12T13:56:51.364Z,5.80
2019-01-12T13:59:19.682Z,5.53
2019-01-12T14:01:47.460Z,5.70
2019-01-12T14:04:15.767Z,5.50
2019-01-12T14:06:43.509Z,6.10
2019-01-12T14:09:11.162Z,6.13
2019-01-12T14:11:43.902Z,5.40
2019-01-12T14:14:14.241Z,5.40
2019-01-12T14:16:41.766Z,6.33
2019-01-12T14:19:09.327Z,6.17
2019-01-12T14:21:36.987Z,6.60
2019-01-12T14:24:04.552Z,6.50
2019-01-12T14:26:32.377Z,5.40
2019-01-12T14:28:59.984Z,6.17
2019-01-12T14:31:27.462Z,5.80
2019-01-12T14:33:55.089Z,6.90
2019-01-12T14:36:22.716Z,6.63
2019-01-12T14:38:50.301Z,6.03
2019-01-12T14:41:18.111Z,7.67
2019-01-12T14:43:45.735Z,7.77
2019-01-12T14:46:13.359Z,6.27
2019-01-12T14:48:41.141Z,7.87
2019-01-12T14:51:08.746Z,6.33
2019-01-12T14:53:36.774Z,6.90
2019-01-12T14:56:04.473Z,7.00
2019-01-12T14:58:32.090Z,6.27
2019-01-12T15:00:59.661Z,5.17
2019-01-12T15:03:27.064Z,6.83
2019-01-12T15:05:54.668Z,7.77
2019-01-12T15:08:22.143Z,6.73
2019-01-12T15:10:49.708Z,6.27
2019-01-12T15:13:17.156Z,7.00
2019-01-12T15:15:44.879Z,6.63
2019-01-12T15:18:12.477Z,7.20
2019-01-12T15:20:39.962Z,8.53
2019-01-12T15:23:07.583Z,8.73
2019-01-12T15:25:35.120Z,8.00
2019-01-12T15:28:09.138Z,7.27
2019-01-12T15:30:32.574Z,9.43
2019-01-12T15:33:02.775Z,7.90
2019-01-12T15:35:32.166Z,8.17
2019-01-12T15:37:59.817Z,8.57
2019-01-12T15:40:27.655Z,8.30
2019-01-12T15:42:55.148Z,8.70
2019-01-12T15:45:23.961Z,7.70
2019-01-12T15:47:52.038Z,10.47
2019-01-12T15:50:22.243Z,8.23
2019-01-12T15:52:49.973Z,8.20
2019-01-12T15:55:17.477Z,6.83
2019-01-12T15:57:46.672Z,8.37
2019-01-12T16:00:17.143Z,8.63
2019-01-12T16:02:44.881Z,7.60
2019-01-12T16:05:12.500Z,7.13
2019-01-12T16:07:40.419Z,8.17
2019-01-12T16:10:09.439Z,7.30
2019-01-12T16:12:37.148Z,8.07
2019-01-12T16:15:07.568Z,8.97
2019-01-12T16:17:35.071Z,8.13
2019-01-12T16:20:03.247Z,6.63
2019-01-12T16:22:30.789Z,7.07
2019-01-12T16:24:58.327Z,7.03
2019-01-12T16:27:25.868Z,8.10
2019-01-12T16:29:53.411Z,6.50
2019-01-12T16:32:20.914Z,7.57
2019-01-12T16:34:48.650Z,6.63
2019-01-12T16:37:16.397Z,6.30
2019-01-12T16:39:44.097Z,7.30
2019-01-12T16:42:11.723Z,9.27
2019-01-12T16:44:39.602Z,6.57
2019-01-12T16:47:07.253Z,7.03
2019-01-12T16:49:34.763Z,7.07
2019-01-12T16:52:02.732Z,12.90
2019-01-12T16:54:30.360Z,8.20
2019-01-12T16:56:57.904Z,8.30
2019-01-12T16:59:25.798Z,8.43
2019-01-12T17:01:53.239Z,6.43
2019-01-12T17:04:20.955Z,10.30
2019-01-12T17:06:48.614Z,7.87
2019-01-12T17:09:16.183Z,9.27
2019-01-12T17:11:43.680Z,9.67
2019-01-12T17:14:11.300Z,9.53
2019-01-12T17:16:38.720Z,9.33
2019-01-12T17:19:06.370Z,9.57
2019-01-12T17:21:33.921Z,9.50
2019-01-12T17:24:01.468Z,7.43
2019-01-12T17:26:28.975Z,13.47
2019-01-12T17:28:56.548Z,9.57
2019-01-12T17:31:24.217Z,8.23
2019-01-12T17:33:51.768Z,7.27
2019-01-12T17:36:19.424Z,7.90
2019-01-12T17:38:47.021Z,7.77
2019-01-12T17:41:14.905Z,8.60
2019-01-12T17:43:42.526Z,8.20
2019-01-12T17:46:10.058Z,9.13
2019-01-12T17:48:38.012Z,8.27
2019-01-12T17:51:05.598Z,8.30
2019-01-12T17:53:33.676Z,9.70
2019-01-12T17:56:02.315Z,7.63
2019-01-12T17:58:30.385Z,13.53
2019-01-12T18:00:58.006Z,8.47
2019-01-12T18:03:25.695Z,7.60
2019-01-12T18:05:53.589Z,6.73
2019-01-12T18:08:21.458Z,8.47
2019-01-12T18:10:49.178Z,7.03
2019-01-12T18:13:16.751Z,7.57
2019-01-12T18:15:44.286Z,8.33
2019-01-12T18:18:11.839Z,7.90
2019-01-12T18:20:39.736Z,6.07
2019-01-12T18:23:07.286Z,6.87
2019-01-12T18:25:34.885Z,7.53
2019-01-12T18:28:02.545Z,6.43
2019-01-12T18:30:29.967Z,6.27
2019-01-12T18:32:57.619Z,6.40
2019-01-12T18:35:25.189Z,6.50
2019-01-12T18:37:52.708Z,6.70
2019-01-12T18:40:20.289Z,6.80
2019-01-12T18:42:49.021Z,6.40
2019-01-12T18:45:17.398Z,6.83
2019-01-12T18:47:45.380Z,7.37
2019-01-12T18:50:16.099Z,7.03
2019-01-12T18:52:43.663Z,8.13
2019-01-12T18:55:11.676Z,7.57
2019-01-12T18:57:39.298Z,6.83
2019-01-12T19:00:18.396Z,7.30
2019-01-12T19:02:41.879Z,7.43
2019-01-12T19:05:09.520Z,6.53
2019-01-12T19:07:37.025Z,6.03
2019-01-12T19:10:05.701Z,8.77
2019-01-12T19:12:33.197Z,7.67
2019-01-12T19:15:00.836Z,11.23
2019-01-12T19:17:28.759Z,9.73
2019-01-12T19:19:56.484Z,10.00
2019-01-12T19:22:24.214Z,9.80
2019-01-12T19:24:51.832Z,6.93
2019-01-12T19:27:19.367Z,6.70
2019-01-12T19:29:46.840Z,5.50
2019-01-12T19:32:14.388Z,7.03
2019-01-12T19:34:41.913Z,7.20
2019-01-12T19:37:09.368Z,7.53
2019-01-12T19:39:37.023Z,5.33
2019-01-12T19:42:04.638Z,7.50
2019-01-12T19:44:32.150Z,6.50
2019-01-12T19:46:59.772Z,6.37
2019-01-12T19:49:27.400Z,5.30
2019-01-12T19:51:55.051Z,6.47
2019-01-12T19:54:22.707Z,5.87
2019-01-12T19:56:50.242Z,5.77
2019-01-12T19:59:17.820Z,6.67
2019-01-12T20:01:45.373Z,7.27
2019-01-12T20:04:13.288Z,7.90
2019-01-12T20:06:40.782Z,8.07
2019-01-12T20:09:09.041Z,8.37
2019-01-12T20:11:36.553Z,8.93
2019-01-12T20:14:04.739Z,9.17
2019-01-12T20:16:32.190Z,10.57
2019-01-12T20:18:59.630Z,9.73
2019-01-12T20:21:27.109Z,10.70
2019-01-12T20:23:54.655Z,10.33
2019-01-12T20:26:22.397Z,11.37
2019-01-12T20:28:49.845Z,12.00
2019-01-12T20:32:16.849Z,10.33
2019-01-12T20:34:55.571Z,11.77
2019-01-12T20:37:55.348Z,10.70
2019-01-12T20:40:57.576Z,10.60
2019-01-12T20:44:03.865Z,10.90
2019-01-12T20:47:02.365Z,10.10
2019-01-12T20:49:51.561Z,9.83
2019-01-12T20:52:46.309Z,10.67
2019-01-12T20:55:33.637Z,10.90
2019-01-12T20:58:39.188Z,11.17
2019-01-12T21:01:40.642Z,11.63
2019-01-12T21:04:48.088Z,10.53
2019-01-12T21:08:01.578Z,10.53
2019-01-12T21:10:58.819Z,16.20
2019-01-12T21:13:59.631Z,70.50
2019-01-12T21:16:31.022Z,51.93
2019-01-12T21:18:58.977Z,45.93
2019-01-12T21:21:26.555Z,40.50
2019-01-12T21:23:53.968Z,40.27
2019-01-12T21:26:21.477Z,41.17
2019-01-12T21:28:50.158Z,45.80
2019-01-12T21:31:17.782Z,46.87
2019-01-12T21:33:45.294Z,40.83
2019-01-12T21:36:12.832Z,41.43
2019-01-12T21:38:40.285Z,33.57
2019-01-12T21:41:08.008Z,29.17
2019-01-12T21:43:35.468Z,23.10
2019-01-12T21:46:03.377Z,27.23
2019-01-12T21:48:30.908Z,24.77
2019-01-12T21:50:58.322Z,24.27
2019-01-12T21:53:25.924Z,24.40
2019-01-12T21:55:53.614Z,21.10
2019-01-12T21:58:21.309Z,22.60
2019-01-12T22:00:49.264Z,21.63
2019-01-12T22:03:16.728Z,21.70
2019-01-12T22:05:45.565Z,28.50
2019-01-12T22:08:13.133Z,24.27
2019-01-12T22:10:40.722Z,21.23
2019-01-12T22:13:08.228Z,22.60
2019-01-12T22:15:35.786Z,21.90
2019-01-12T22:18:03.439Z,21.50
2019-01-12T22:20:31.148Z,21.20
2019-01-12T22:22:58.691Z,19.33
2019-01-12T22:25:26.274Z,20.83
2019-01-12T22:27:53.708Z,20.43
2019-01-12T22:30:21.462Z,19.07
2019-01-12T22:32:48.881Z,19.37
2019-01-12T22:35:16.514Z,20.53
2019-01-12T22:37:43.998Z,21.20
2019-01-12T22:40:16.463Z,26.60
2019-01-12T22:42:43.916Z,29.87
2019-01-12T22:45:11.448Z,30.00
2019-01-12T22:47:39.027Z,25.20
2019-01-12T22:50:08.266Z,29.17
2019-01-12T22:52:35.727Z,24.03
2019-01-12T22:55:04.339Z,27.07
2019-01-12T22:57:31.902Z,27.33
2019-01-12T22:59:59.412Z,25.50
2019-01-12T23:02:26.843Z,25.47
2019-01-12T23:04:54.313Z,26.07
2019-01-12T23:07:21.816Z,22.50
2019-01-12T23:09:49.406Z,28.40
2019-01-12T23:12:16.779Z,30.60
2019-01-12T23:14:44.317Z,32.00
2019-01-12T23:17:12.035Z,33.10
2019-01-12T23:19:39.531Z,31.30
2019-01-12T23:22:07.096Z,30.43
2019-01-12T23:24:34.568Z,28.97
2019-01-12T23:27:01.987Z,28.10
2019-01-12T23:29:29.478Z,32.93
2019-01-12T23:31:56.952Z,29.97
2019-01-12T23:34:24.462Z,32.00
2019-01-12T23:36:51.956Z,28.97
2019-01-12T23:39:19.482Z,28.77
2019-01-12T23:41:47.082Z,29.17
2019-01-12T23:44:14.947Z,28.77
2019-01-12T23:46:42.757Z,25.07
2019-01-12T23:49:10.301Z,25.10
2019-01-12T23:51:37.894Z,25.47
2019-01-12T23:54:05.423Z,25.57
2019-01-12T23:56:33.130Z,26.67
2019-01-12T23:59:00.710Z,24.67
